Manitou Beach, Washington
Current Conditions -  °F | °C
As of 2:53 AM on Wednesday 26 Nov 2014 (Local Time) from KBFI Reporting Station
Scattered Clouds Scattered Clouds  
Wind Chill: 59°   Ceiling: Unl
Heat Index: 59°   Visibility: 10mi
Dew Point: 52°   Wind: 20mph
Humidity: 78%   Direction: 190°S
Pressure: 30.15"   Gusts: 30mph
Location:  47.6559°N, 122.509°W
Report Text: KBFI 261053Z 19017G26KT 10SM FEW013 SCT025 15/11 A3015 RMK AO2 PK WND 19027/1027 SLP211 T01500111
Loading
Personal Weather Stations






























Interactive Weather Map New forecast layout! Learn more

10-Day Weather Forecast

Advertisements
Track Severe Weather on mobile